createdAt,value
2018-06-28T00:00:52.589Z,18.22
2018-06-28T00:03:24.393Z,18.26
2018-06-28T00:05:53.113Z,18.18
2018-06-28T00:08:21.799Z,18.31
2018-06-28T00:10:50.483Z,18.30
2018-06-28T00:13:20.357Z,18.22
2018-06-28T00:15:49.097Z,18.19
2018-06-28T00:18:17.821Z,18.18
2018-06-28T00:20:46.439Z,18.14
2018-06-28T00:23:15.149Z,18.06
2018-06-28T00:25:44.036Z,17.99
2018-06-28T00:28:12.850Z,18.02
2018-06-28T00:30:41.649Z,17.97
2018-06-28T00:33:10.315Z,17.94
2018-06-28T00:35:38.972Z,17.90
2018-06-28T00:38:07.864Z,17.85
2018-06-28T00:40:36.725Z,17.73
2018-06-28T00:43:05.333Z,17.64
2018-06-28T00:45:34.237Z,17.66
2018-06-28T00:48:03.124Z,17.59
2018-06-28T00:50:31.891Z,17.55
2018-06-28T00:53:00.665Z,17.57
2018-06-28T00:55:29.354Z,17.55
2018-06-28T00:57:58.108Z,17.53
2018-06-28T01:00:26.869Z,17.50
2018-06-28T01:02:55.554Z,17.42
2018-06-28T01:05:24.313Z,17.54
2018-06-28T01:07:57.151Z,17.51
2018-06-28T01:10:25.872Z,17.55
2018-06-28T01:12:54.597Z,17.54
2018-06-28T01:15:24.473Z,17.35
2018-06-28T01:17:53.260Z,17.44
2018-06-28T01:20:21.977Z,17.45
2018-06-28T01:22:50.768Z,17.44
2018-06-28T01:25:19.688Z,17.39
2018-06-28T01:27:48.398Z,17.30
2018-06-28T01:30:17.180Z,17.31
2018-06-28T01:32:45.946Z,17.11
2018-06-28T01:35:14.601Z,17.19
2018-06-28T01:37:43.373Z,17.18
2018-06-28T01:40:12.200Z,17.18
2018-06-28T01:42:51.713Z,17.14
2018-06-28T01:45:20.436Z,17.18
2018-06-28T01:47:49.010Z,17.08
2018-06-28T01:50:17.732Z,17.12
2018-06-28T01:52:46.766Z,16.91
2018-06-28T01:55:15.494Z,16.97
2018-06-28T01:57:44.353Z,16.85
2018-06-28T02:00:13.148Z,16.78
2018-06-28T02:02:41.963Z,16.81
2018-06-28T02:05:10.750Z,16.76
2018-06-28T02:07:39.533Z,16.77
2018-06-28T02:10:08.406Z,16.75
2018-06-28T02:12:37.108Z,16.58
2018-06-28T02:15:07.351Z,16.58
2018-06-28T02:17:36.126Z,16.53
2018-06-28T02:20:05.100Z,16.46
2018-06-28T02:22:33.965Z,16.36
2018-06-28T02:25:02.723Z,16.28
2018-06-28T02:27:31.380Z,16.25
2018-06-28T02:30:00.253Z,16.20
2018-06-28T02:32:28.980Z,16.20
2018-06-28T02:34:57.782Z,16.06
2018-06-28T02:37:26.518Z,16.05
2018-06-28T02:39:55.305Z,16.16
2018-06-28T02:42:23.994Z,16.11
2018-06-28T02:44:52.678Z,15.90
2018-06-28T02:47:21.494Z,15.97
2018-06-28T02:49:50.399Z,16.00
2018-06-28T02:52:19.094Z,15.89
2018-06-28T02:54:47.960Z,16.01
2018-06-28T02:57:16.640Z,16.07
2018-06-28T02:59:45.379Z,16.03
2018-06-28T03:02:14.050Z,15.92
2018-06-28T03:04:42.776Z,15.97
2018-06-28T03:07:11.664Z,15.91
2018-06-28T03:09:40.421Z,15.80
2018-06-28T03:12:09.223Z,15.94
2018-06-28T03:14:37.982Z,15.92
2018-06-28T03:17:06.685Z,15.91
2018-06-28T03:19:35.465Z,15.74
2018-06-28T03:22:04.291Z,15.86
2018-06-28T03:24:33.020Z,15.86
2018-06-28T03:27:01.759Z,15.76
2018-06-28T03:29:30.557Z,15.86
2018-06-28T03:31:59.300Z,15.67
2018-06-28T03:34:28.034Z,15.79
2018-06-28T03:36:57.010Z,15.75
2018-06-28T03:39:25.793Z,15.84
2018-06-28T03:41:54.622Z,15.80
2018-06-28T03:44:23.348Z,15.73
2018-06-28T03:46:52.187Z,15.74
2018-06-28T03:49:20.847Z,15.77
2018-06-28T03:51:49.588Z,15.72
2018-06-28T03:54:18.417Z,15.68
2018-06-28T03:56:47.192Z,15.86
2018-06-28T03:59:15.960Z,15.92
2018-06-28T04:01:44.741Z,15.93
2018-06-28T04:04:13.477Z,15.98
2018-06-28T04:06:42.266Z,16.00
2018-06-28T04:09:11.997Z,15.89
2018-06-28T04:11:40.764Z,16.00
2018-06-28T04:14:09.476Z,16.00
2018-06-28T04:16:38.381Z,16.11
2018-06-28T04:19:06.992Z,16.18
2018-06-28T04:21:35.687Z,16.21
2018-06-28T04:24:04.425Z,16.28
2018-06-28T04:26:33.156Z,16.34
2018-06-28T04:29:01.892Z,16.36
2018-06-28T04:31:30.708Z,16.47
2018-06-28T04:33:59.702Z,16.55
2018-06-28T04:36:28.377Z,16.69
2018-06-28T04:38:57.065Z,17.00
2018-06-28T04:41:25.707Z,17.27
2018-06-28T04:43:54.585Z,17.54
2018-06-28T04:46:23.361Z,17.58
2018-06-28T04:48:52.033Z,17.72
2018-06-28T04:51:20.760Z,17.96
2018-06-28T04:53:49.483Z,17.95
2018-06-28T04:56:18.261Z,18.18
2018-06-28T04:58:47.100Z,18.04
2018-06-28T05:01:16.039Z,18.05
2018-06-28T05:03:44.847Z,18.24
2018-06-28T05:06:13.601Z,18.29
2018-06-28T05:08:42.516Z,18.34
2018-06-28T05:11:11.361Z,18.31
2018-06-28T05:13:40.033Z,18.43
2018-06-28T05:16:08.802Z,18.67
2018-06-28T05:18:37.604Z,18.75
2018-06-28T05:21:06.545Z,18.89
2018-06-28T05:23:35.428Z,18.71
2018-06-28T05:26:04.307Z,18.96
2018-06-28T05:28:32.929Z,19.14
2018-06-28T05:31:01.907Z,19.34
2018-06-28T05:33:30.684Z,19.58
2018-06-28T05:35:59.454Z,19.76
2018-06-28T05:38:28.182Z,19.97
2018-06-28T05:40:57.094Z,20.31
2018-06-28T05:43:25.819Z,20.54
2018-06-28T05:45:54.924Z,20.63
2018-06-28T05:48:23.745Z,20.83
2018-06-28T05:50:52.506Z,20.96
2018-06-28T05:53:21.442Z,21.21
2018-06-28T05:55:50.351Z,21.49
2018-06-28T05:58:19.224Z,21.74
2018-06-28T06:00:48.027Z,21.51
2018-06-28T06:03:16.893Z,21.94
2018-06-28T06:05:45.597Z,21.85
2018-06-28T06:08:14.439Z,22.03
2018-06-28T06:10:43.035Z,22.12
2018-06-28T06:13:11.795Z,22.40
2018-06-28T06:15:40.602Z,22.54
2018-06-28T06:18:09.360Z,22.81
2018-06-28T06:20:37.973Z,22.98
2018-06-28T06:23:07.016Z,23.22
2018-06-28T06:25:35.687Z,23.41
2018-06-28T06:28:04.502Z,23.37
2018-06-28T06:30:33.396Z,23.20
2018-06-28T06:33:02.357Z,23.40
2018-06-28T06:35:31.180Z,23.78
2018-06-28T06:37:59.954Z,23.75
2018-06-28T06:40:28.641Z,23.71
2018-06-28T06:42:57.379Z,23.65
2018-06-28T06:45:26.143Z,24.07
2018-06-28T06:47:54.945Z,24.21
2018-06-28T06:50:23.771Z,24.32
2018-06-28T06:52:52.549Z,24.33
2018-06-28T06:55:21.291Z,24.36
2018-06-28T06:57:50.029Z,24.35
2018-06-28T07:00:18.834Z,24.42
2018-06-28T07:02:47.629Z,24.46
2018-06-28T07:05:16.522Z,24.77
2018-06-28T07:07:45.344Z,24.77
2018-06-28T07:10:14.401Z,24.93
2018-06-28T07:12:43.136Z,24.87
2018-06-28T07:15:12.680Z,24.91
2018-06-28T07:17:41.522Z,24.93
2018-06-28T07:20:10.291Z,25.14
2018-06-28T07:22:38.931Z,25.15
2018-06-28T07:25:07.795Z,25.03
2018-06-28T07:27:36.679Z,25.18
2018-06-28T07:30:06.356Z,25.51
2018-06-28T07:32:35.142Z,25.14
2018-06-28T07:35:04.110Z,25.47
2018-06-28T07:37:32.858Z,25.65
2018-06-28T07:40:01.705Z,25.68
2018-06-28T07:42:30.465Z,25.84
2018-06-28T07:44:59.362Z,25.95
2018-06-28T07:47:28.073Z,26.04
2018-06-28T07:49:57.065Z,26.46
2018-06-28T07:52:25.700Z,26.44
2018-06-28T07:54:54.433Z,26.45
2018-06-28T07:57:23.251Z,26.71
2018-06-28T07:59:52.053Z,26.63
2018-06-28T08:02:20.733Z,26.93
2018-06-28T08:04:49.583Z,26.93
2018-06-28T08:07:18.194Z,27.07
2018-06-28T08:09:47.212Z,27.01
2018-06-28T08:12:15.989Z,27.13
2018-06-28T08:14:44.850Z,26.91
2018-06-28T08:17:13.580Z,26.85
2018-06-28T08:19:42.398Z,26.94
2018-06-28T08:22:11.229Z,27.29
2018-06-28T08:24:40.037Z,27.14
2018-06-28T08:27:08.927Z,27.43
2018-06-28T08:29:37.749Z,27.67
2018-06-28T08:32:06.674Z,27.82
2018-06-28T08:34:35.449Z,28.16
2018-06-28T08:37:04.263Z,28.44
2018-06-28T08:39:33.138Z,28.62
2018-06-28T08:42:01.914Z,28.63
2018-06-28T08:44:30.641Z,28.92
2018-06-28T08:46:59.349Z,29.34
2018-06-28T08:49:28.188Z,29.27
2018-06-28T08:51:56.970Z,29.35
2018-06-28T08:54:25.776Z,29.35
2018-06-28T08:56:54.526Z,29.49
2018-06-28T08:59:23.304Z,29.82
2018-06-28T09:01:52.507Z,29.97
2018-06-28T09:04:21.267Z,29.88
2018-06-28T09:06:50.099Z,30.01
2018-06-28T09:09:18.845Z,30.21
2018-06-28T09:11:47.597Z,30.14
2018-06-28T09:14:16.434Z,30.22
2018-06-28T09:16:45.157Z,30.41
2018-06-28T09:19:13.944Z,30.72
2018-06-28T09:21:42.801Z,30.57
2018-06-28T09:24:11.542Z,30.56
2018-06-28T09:26:40.398Z,30.30
2018-06-28T09:29:09.138Z,30.19
2018-06-28T09:31:37.857Z,30.28
2018-06-28T09:34:06.679Z,30.62
2018-06-28T09:36:35.521Z,30.45
2018-06-28T09:39:05.402Z,30.84
2018-06-28T09:41:34.227Z,30.65
2018-06-28T09:44:03.082Z,30.98
2018-06-28T09:46:31.779Z,31.39
2018-06-28T09:49:00.521Z,32.09
2018-06-28T09:51:29.305Z,32.33
2018-06-28T09:53:58.016Z,32.33
2018-06-28T09:56:26.726Z,32.54
2018-06-28T09:58:55.453Z,32.29
2018-06-28T10:01:24.280Z,31.85
2018-06-28T10:03:53.004Z,31.63
2018-06-28T10:06:21.754Z,31.53
2018-06-28T10:08:50.546Z,31.36
2018-06-28T10:11:19.314Z,31.26
2018-06-28T10:13:48.020Z,31.21
2018-06-28T10:16:16.724Z,31.35
2018-06-28T10:18:45.477Z,31.40
2018-06-28T10:21:14.470Z,31.44
2018-06-28T10:23:43.383Z,31.89
2018-06-28T10:26:12.191Z,32.31
2018-06-28T10:28:40.933Z,32.43
2018-06-28T10:31:10.093Z,32.37
2018-06-28T10:33:38.839Z,31.53
2018-06-28T10:36:07.685Z,31.43
2018-06-28T10:38:36.517Z,31.22
2018-06-28T10:41:05.976Z,30.68
2018-06-28T10:43:34.898Z,29.89
2018-06-28T10:46:03.670Z,29.50
2018-06-28T10:48:32.377Z,29.02
2018-06-28T10:51:02.473Z,28.72
2018-06-28T10:53:35.025Z,28.20
2018-06-28T10:56:04.225Z,27.94
2018-06-28T10:58:33.125Z,27.99
2018-06-28T11:01:01.944Z,28.00
2018-06-28T11:03:30.735Z,27.56
2018-06-28T11:05:59.444Z,27.33
2018-06-28T11:08:28.423Z,26.75
2018-06-28T11:10:57.335Z,26.63
2018-06-28T11:13:26.269Z,26.45
2018-06-28T11:15:55.569Z,26.22
2018-06-28T11:18:24.353Z,26.30
2018-06-28T11:20:53.066Z,26.26
2018-06-28T11:23:21.939Z,26.30
2018-06-28T11:25:50.754Z,26.49
2018-06-28T11:28:19.478Z,26.59
2018-06-28T11:30:48.267Z,26.59
2018-06-28T11:33:17.050Z,26.60
2018-06-28T11:35:45.830Z,26.78
2018-06-28T11:38:14.687Z,26.86
2018-06-28T11:40:43.545Z,27.24
2018-06-28T11:43:12.553Z,27.24
2018-06-28T11:45:41.432Z,27.49
2018-06-28T11:48:10.448Z,27.44
2018-06-28T11:50:39.217Z,27.59
2018-06-28T11:53:09.298Z,27.51
2018-06-28T11:55:38.224Z,27.80
2018-06-28T11:58:07.155Z,27.73
2018-06-28T12:00:36.111Z,27.63
2018-06-28T12:03:04.857Z,27.60
2018-06-28T12:05:33.694Z,27.66
2018-06-28T12:08:02.665Z,27.73
2018-06-28T12:10:31.472Z,27.85
2018-06-28T12:13:00.292Z,27.90
2018-06-28T12:15:29.170Z,28.12
2018-06-28T12:17:57.984Z,27.27
2018-06-28T12:20:26.846Z,27.25
2018-06-28T12:22:56.018Z,27.15
2018-06-28T12:25:24.986Z,27.22
2018-06-28T12:27:53.760Z,27.41
2018-06-28T12:30:22.455Z,27.61
2018-06-28T12:32:51.419Z,27.94
2018-06-28T12:35:20.190Z,28.43
2018-06-28T12:37:49.198Z,29.05
2018-06-28T12:40:18.029Z,29.01
2018-06-28T12:42:46.896Z,28.83
2018-06-28T12:45:17.984Z,28.75
2018-06-28T12:47:54.693Z,28.72
2018-06-28T12:50:23.757Z,28.68
2018-06-28T12:52:54.848Z,28.71
2018-06-28T12:55:24.153Z,28.72
2018-06-28T12:57:54.989Z,28.60
2018-06-28T13:00:23.773Z,28.69
2018-06-28T13:02:52.490Z,28.63
2018-06-28T13:05:21.417Z,28.82
2018-06-28T13:07:50.274Z,28.99
2018-06-28T13:10:19.405Z,28.96
2018-06-28T13:12:48.220Z,28.80
2018-06-28T13:15:19.029Z,28.45
2018-06-28T13:17:47.776Z,28.10
2018-06-28T13:20:16.620Z,27.41
2018-06-28T13:22:45.320Z,27.16
2018-06-28T13:25:14.398Z,26.64
2018-06-28T13:27:43.097Z,26.17
2018-06-28T13:30:11.787Z,25.89
2018-06-28T13:32:40.519Z,25.82
2018-06-28T13:35:09.570Z,25.57
2018-06-28T13:37:38.865Z,25.52
2018-06-28T13:40:08.164Z,25.41
2018-06-28T13:42:37.100Z,25.47
2018-06-28T13:45:06.359Z,25.77
2018-06-28T13:47:35.137Z,25.98
2018-06-28T13:50:04.130Z,26.14
2018-06-28T13:52:33.071Z,26.11
2018-06-28T13:55:02.189Z,26.05
2018-06-28T13:57:31.889Z,26.36
2018-06-28T14:00:00.896Z,27.61
2018-06-28T14:02:29.757Z,29.42
2018-06-28T14:04:58.722Z,30.47
2018-06-28T14:07:27.553Z,30.71
2018-06-28T14:09:59.318Z,30.21
2018-06-28T14:12:28.043Z,29.69
2018-06-28T14:14:56.842Z,29.35
2018-06-28T14:17:25.789Z,28.61
2018-06-28T14:19:54.770Z,27.99
2018-06-28T14:22:23.661Z,27.96
2018-06-28T14:24:52.664Z,27.72
2018-06-28T14:27:21.359Z,27.42
2018-06-28T14:29:50.151Z,27.38
2018-06-28T14:32:18.939Z,26.99
2018-06-28T14:34:47.859Z,26.74
2018-06-28T14:37:16.683Z,26.58
2018-06-28T14:39:45.663Z,26.43
2018-06-28T14:42:14.475Z,26.24
2018-06-28T14:44:43.218Z,26.41
2018-06-28T14:47:12.456Z,26.38
2018-06-28T14:49:41.344Z,26.41
2018-06-28T14:52:10.300Z,25.85
2018-06-28T14:54:39.244Z,25.69
2018-06-28T14:57:08.082Z,25.52
2018-06-28T14:59:36.928Z,25.45
2018-06-28T15:02:05.730Z,25.42
2018-06-28T15:04:34.605Z,25.36
2018-06-28T15:07:03.606Z,25.40
2018-06-28T15:09:32.375Z,25.44
2018-06-28T15:12:01.315Z,25.53
2018-06-28T15:14:30.203Z,25.42
2018-06-28T15:16:59.581Z,25.24
2018-06-28T15:19:28.520Z,25.25
2018-06-28T15:21:57.540Z,25.09
2018-06-28T15:24:26.508Z,25.26
2018-06-28T15:26:55.383Z,25.11
2018-06-28T15:29:24.435Z,25.12
2018-06-28T15:31:53.319Z,25.09
2018-06-28T15:34:22.055Z,25.00
2018-06-28T15:36:50.849Z,24.81
2018-06-28T15:39:19.540Z,24.49
2018-06-28T15:41:48.312Z,24.69
2018-06-28T15:44:17.018Z,24.89
2018-06-28T15:46:45.841Z,25.07
2018-06-28T15:49:14.668Z,25.00
2018-06-28T15:51:43.458Z,24.95
2018-06-28T15:54:12.439Z,25.18
2018-06-28T15:56:41.596Z,25.19
2018-06-28T15:59:10.326Z,25.22
2018-06-28T16:01:39.169Z,24.91
2018-06-28T16:04:08.038Z,24.92
2018-06-28T16:06:36.869Z,24.90
2018-06-28T16:09:08.277Z,24.84
2018-06-28T16:11:37.155Z,24.69
2018-06-28T16:14:05.922Z,24.83
2018-06-28T16:16:34.705Z,24.83
2018-06-28T16:19:03.547Z,24.72
2018-06-28T16:21:32.397Z,24.49
2018-06-28T16:24:01.161Z,24.72
2018-06-28T16:26:29.930Z,24.54
2018-06-28T16:28:58.769Z,24.68
2018-06-28T16:31:27.584Z,24.81
2018-06-28T16:33:56.447Z,25.12
2018-06-28T16:36:25.277Z,24.75
2018-06-28T16:38:53.905Z,24.81
2018-06-28T16:41:22.954Z,25.01
2018-06-28T16:43:51.663Z,25.27
2018-06-28T16:46:20.571Z,25.38
2018-06-28T16:48:49.320Z,25.61
2018-06-28T16:51:17.965Z,25.69
2018-06-28T16:53:46.770Z,25.87
2018-06-28T16:56:15.719Z,26.04
2018-06-28T16:58:44.540Z,26.12
2018-06-28T17:01:13.460Z,25.89
2018-06-28T17:03:42.193Z,25.79
2018-06-28T17:06:11.053Z,25.75
2018-06-28T17:08:40.706Z,25.54
2018-06-28T17:11:09.583Z,25.60
2018-06-28T17:13:38.394Z,25.36
2018-06-28T17:16:07.252Z,25.39
2018-06-28T17:18:35.939Z,25.44
2018-06-28T17:21:04.862Z,25.22
2018-06-28T17:23:33.793Z,25.38
2018-06-28T17:26:02.851Z,25.16
2018-06-28T17:28:31.575Z,25.11
2018-06-28T17:31:00.270Z,25.08
2018-06-28T17:33:29.069Z,24.95
2018-06-28T17:35:58.030Z,24.97
2018-06-28T17:38:26.997Z,24.96
2018-06-28T17:40:55.775Z,24.76
2018-06-28T17:43:24.660Z,24.77
2018-06-28T17:45:53.606Z,24.93
2018-06-28T17:48:22.607Z,24.96
2018-06-28T17:50:51.339Z,25.01
2018-06-28T17:53:20.409Z,25.08
2018-06-28T17:55:49.215Z,25.06
2018-06-28T17:58:18.027Z,24.83
2018-06-28T18:00:46.788Z,24.92
2018-06-28T18:03:15.649Z,24.85
2018-06-28T18:05:44.531Z,24.96
2018-06-28T18:08:13.599Z,24.85
2018-06-28T18:10:42.721Z,24.63
2018-06-28T18:13:11.605Z,24.30
2018-06-28T18:15:40.639Z,24.20
2018-06-28T18:18:09.463Z,24.07
2018-06-28T18:20:38.195Z,23.89
2018-06-28T18:23:07.098Z,23.79
2018-06-28T18:25:35.811Z,23.77
2018-06-28T18:28:04.601Z,23.62
2018-06-28T18:30:33.700Z,23.41
2018-06-28T18:33:02.539Z,23.10
2018-06-28T18:35:31.695Z,22.86
2018-06-28T18:38:00.530Z,22.77
2018-06-28T18:40:29.410Z,22.88
2018-06-28T18:42:58.407Z,22.69
2018-06-28T18:45:27.285Z,22.61
2018-06-28T18:47:56.014Z,22.55
2018-06-28T18:50:25.072Z,22.40
2018-06-28T18:52:53.890Z,22.41
2018-06-28T18:55:22.786Z,22.49
2018-06-28T18:57:52.320Z,22.41
2018-06-28T19:00:21.865Z,22.64
2018-06-28T19:02:52.025Z,22.77
2018-06-28T19:05:21.665Z,23.00
2018-06-28T19:07:51.792Z,23.01
2018-06-28T19:10:25.540Z,23.08
2018-06-28T19:12:54.793Z,22.80
2018-06-28T19:15:31.482Z,22.79
2018-06-28T19:18:00.642Z,22.86
2018-06-28T19:20:29.672Z,22.81
2018-06-28T19:23:03.708Z,22.53
2018-06-28T19:25:33.577Z,22.38
2018-06-28T19:28:03.801Z,22.11
2018-06-28T19:30:38.887Z,22.43
2018-06-28T19:33:14.355Z,22.64
2018-06-28T19:35:43.112Z,22.44
2018-06-28T19:38:13.261Z,22.29
2018-06-28T19:40:48.085Z,21.93
2018-06-28T19:43:16.930Z,22.30
2018-06-28T19:45:47.299Z,22.04
2018-06-28T19:48:16.604Z,22.04
2018-06-28T19:50:51.944Z,21.95
2018-06-28T19:53:20.827Z,21.96
2018-06-28T19:55:49.668Z,21.99
2018-06-28T19:58:19.543Z,22.10
2018-06-28T20:00:53.576Z,21.85
2018-06-28T20:03:27.565Z,21.85
2018-06-28T20:05:56.473Z,21.70
2018-06-28T20:11:28.508Z,22.05
2018-06-28T20:14:02.584Z,21.83
2018-06-28T20:16:36.399Z,21.87
2018-06-28T20:19:10.335Z,22.06
2018-06-28T20:21:39.246Z,22.34
2018-06-28T20:24:08.364Z,22.48
2018-06-28T20:26:42.520Z,22.54
2018-06-28T20:29:16.354Z,22.49
2018-06-28T20:31:50.591Z,22.46
2018-06-28T20:34:19.492Z,22.61
2018-06-28T20:36:48.882Z,22.67
2018-06-28T20:39:17.992Z,22.77
2018-06-28T20:41:47.956Z,22.79
2018-06-28T20:44:19.145Z,22.52
2018-06-28T20:46:47.988Z,22.49
2018-06-28T20:49:17.080Z,22.65
2018-06-28T20:51:50.905Z,22.82
2018-06-28T20:54:25.545Z,22.96
2018-06-28T20:56:55.864Z,23.07
2018-06-28T20:59:25.475Z,23.36
2018-06-28T21:02:06.595Z,23.21
2018-06-28T21:04:41.148Z,23.20
2018-06-28T21:07:10.392Z,23.26
2018-06-28T21:09:57.356Z,23.24
2018-06-28T21:13:14.134Z,23.30
2018-06-28T21:16:05.141Z,23.18
2018-06-28T21:18:37.075Z,22.86
2018-06-28T21:21:06.247Z,23.15
2018-06-28T21:23:35.116Z,23.22
2018-06-28T21:26:03.886Z,23.22
2018-06-28T21:28:32.650Z,23.11
2018-06-28T21:31:01.617Z,22.93
2018-06-28T21:33:30.509Z,23.23
2018-06-28T21:35:59.228Z,23.07
2018-06-28T21:38:29.791Z,23.17
2018-06-28T21:40:58.684Z,23.17
2018-06-28T21:43:27.591Z,23.26
2018-06-28T21:45:56.727Z,23.24
2018-06-28T21:48:25.510Z,23.28
2018-06-28T21:50:54.197Z,23.26
2018-06-28T21:53:22.991Z,23.37
2018-06-28T21:56:14.473Z,22.99
2018-06-28T21:58:51.226Z,23.22
2018-06-28T22:01:20.068Z,22.79
2018-06-28T22:03:48.910Z,23.02
2018-06-28T22:06:17.618Z,23.02
2018-06-28T22:08:46.348Z,22.86
2018-06-28T22:11:32.768Z,22.71
2018-06-28T22:14:01.766Z,22.86
2018-06-28T22:16:42.351Z,23.08
2018-06-28T22:19:20.482Z,23.26
2018-06-28T22:22:07.500Z,23.36
2018-06-28T22:24:58.309Z,23.33
2018-06-28T22:27:30.098Z,23.26
2018-06-28T22:30:00.493Z,23.21
2018-06-28T22:32:29.150Z,23.33
2018-06-28T22:34:58.137Z,23.43
2018-06-28T22:37:27.004Z,23.49
2018-06-28T22:39:56.383Z,23.32
2018-06-28T22:42:25.273Z,23.36
2018-06-28T22:44:54.173Z,23.38
2018-06-28T22:47:22.918Z,23.45
2018-06-28T22:49:51.625Z,23.42
2018-06-28T22:52:20.447Z,23.44
2018-06-28T22:54:49.546Z,23.36
2018-06-28T22:57:18.403Z,23.39
2018-06-28T22:59:47.198Z,22.90
2018-06-28T23:02:16.057Z,22.98
2018-06-28T23:04:45.014Z,22.95
2018-06-28T23:07:13.885Z,23.13
2018-06-28T23:09:42.714Z,23.21
2018-06-28T23:12:11.536Z,23.36
2018-06-28T23:14:40.357Z,23.43
2018-06-28T23:17:09.116Z,23.46
2018-06-28T23:19:37.930Z,23.45
2018-06-28T23:22:06.861Z,23.41
2018-06-28T23:24:35.705Z,22.99
2018-06-28T23:27:04.544Z,22.61
2018-06-28T23:29:33.295Z,22.62
2018-06-28T23:32:02.193Z,22.59
2018-06-28T23:34:30.887Z,22.76
2018-06-28T23:36:59.629Z,22.68
2018-06-28T23:39:29.924Z,22.55
2018-06-28T23:41:58.971Z,22.71
2018-06-28T23:44:27.742Z,22.55
2018-06-28T23:46:56.514Z,22.64
2018-06-28T23:49:25.211Z,22.90
2018-06-28T23:51:53.896Z,22.52
2018-06-28T23:54:22.574Z,22.68
2018-06-28T23:56:51.798Z,22.63
2018-06-28T23:59:20.376Z,22.73
